^^
MeteoGriva-Weather Station Historical Data
Daily Summary for August 20, 2020 Units:  English    Metric   Both
Daily Weekly Monthly Yearly Custom
  High: Low: Average:
Temperature: 38.7 °F 30.9 °F 34.5 °F
Dew Point: 34.7 °F 27 °F 30 °F
Humidity: 93.8% 73.4% 84%
Wind Speed: 6mph 0mph 0.9mph
Wind Gust: 15mph - -
Wind- - South
Pressure: 30.9 in 30.5 in -
Precipitation: 0 in    
Historical Graphs
 
 
Tabular Data for August 20, 2020
Time Temperature Dew Point Pressure Wind Wind Speed Wind Gust Humidity Rainfall Rate (Hourly) solar
00:04 36.7 °F 34.5 °F 30.5 in Calm     92% 0 in 0 W/m2
00:09 36.3 °F 34.2 °F 30.5 in Calm     92% 0 in 0 W/m2
00:14 36.3 °F 33.8 °F 30.5 in Calm     90.3% 0 in 0 W/m2
00:19 36.3 °F 34 °F 30.5 in Calm     91% 0 in 0 W/m2
00:24 36.3 °F 33.6 °F 30.5 in Calm     89.7% 0 in 0 W/m2
00:29 36.5 °F 34.2 °F 30.5 in Calm     91.6% 0 in 0 W/m2
00:34 36.3 °F 34.7 °F 30.5 in Calm     93.8% 0 in 0 W/m2
00:39 36.3 °F 34.3 °F 30.5 in Calm     92.4% 0 in 0 W/m2
00:44 36.3 °F 34.2 °F 30.5 in Calm     92% 0 in 0 W/m2
00:49 36.3 °F 33.8 °F 30.5 in Calm     90.7% 0 in 0 W/m2
00:54 36.3 °F 33.4 °F 30.5 in Calm     89.4% 0 in 0 W/m2
00:59 36.3 °F 34 °F 30.5 in Calm     91% 0 in 0 W/m2
01:04 36.3 °F 34 °F 30.5 in Calm     91% 0 in 0 W/m2
01:09 36.3 °F 33.8 °F 30.5 in Calm     90.7% 0 in 0 W/m2
01:14 36.1 °F 34.3 °F 30.5 in Calm     93% 0 in 0 W/m2
01:19 36.1 °F 34.2 °F 30.5 in Calm     92.2% 0 in 0 W/m2
01:24 36.1 °F 33.6 °F 30.5 in Calm     90.3% 0 in 0 W/m2
01:29 36.3 °F 33.4 °F 30.5 in NE 0.1 mph 2.5 mph 88.5% 0 in 0 W/m2
01:34 36.5 °F 33.3 °F 30.5 in Calm     88% 0 in 0 W/m2
01:39 36.5 °F 33.3 °F 30.5 in Calm     88% 0 in 0 W/m2
01:44 36.5 °F 33.3 °F 30.5 in Calm     88% 0 in 0 W/m2
01:49 36.5 °F 33.3 °F 30.5 in Calm     88.2% 0 in 0 W/m2
01:54 36.3 °F 33.1 °F 30.5 in ENE 0.1 mph 2.5 mph 88.2% 0 in 0 W/m2
01:59 36.3 °F 33.3 °F 30.5 in Calm   2.5 mph 88.3% 0 in 0 W/m2
02:04 36.3 °F 33.1 °F 30.5 in Calm     88.1% 0 in 0 W/m2
02:09 36.1 °F 32.9 °F 30.5 in Calm     88% 0 in 0 W/m2
02:14 36.1 °F 32.9 °F 30.5 in Calm     88% 0 in 0 W/m2
02:19 36.1 °F 32.9 °F 30.5 in North 0.4 mph 2.5 mph 88% 0 in 0 W/m2
02:24 36.1 °F 32.9 °F 30.5 in NNW 0.7 mph 7.6 mph 88% 0 in 0 W/m2
02:29 36.1 °F 32.7 °F 30.5 in NNW 0.2 mph 4.9 mph 87% 0 in 0 W/m2
02:34 36 °F 32.5 °F 30.5 in Calm     87% 0 in 0 W/m2
02:39 36 °F 32.7 °F 30.5 in Calm     87.7% 0 in 0 W/m2
02:44 36 °F 32.7 °F 30.5 in Calm   2.5 mph 88% 0 in 0 W/m2
02:49 36 °F 32.5 °F 30.5 in Calm   2.5 mph 87.6% 0 in 0 W/m2
02:54 36 °F 32.5 °F 30.5 in Calm     87% 0 in 0 W/m2
02:59 36 °F 32.5 °F 30.5 in NE 0.4 mph 4.9 mph 87% 0 in 0 W/m2
03:04 36 °F 32.2 °F 30.5 in North 1.4 mph 4.9 mph 86.3% 0 in 0 W/m2
03:09 35.8 °F 32 °F 30.5 in North 0.4 mph 4.9 mph 86% 0 in 0 W/m2
03:14 35.6 °F 32.2 °F 30.5 in North 0.6 mph 4.9 mph 87% 0 in 0 W/m2
03:19 35.6 °F 32.2 °F 30.5 in NNE 0.2 mph 2.5 mph 87% 0 in 0 W/m2
03:24 35.6 °F 32.2 °F 30.5 in Calm     87% 0 in 0 W/m2
03:29 35.2 °F 32 °F 30.5 in Calm     87.9% 0 in 0 W/m2
03:34 35.1 °F 31.6 °F 30.5 in North 1.4 mph 7.6 mph 88% 0 in 0 W/m2
03:39 34.9 °F 31.6 °F 30.5 in Calm   4.9 mph 88% 0 in 0 W/m2
03:44 34.9 °F 31.6 °F 30.5 in NNE 1.2 mph 10.1 mph 88.3% 0 in 0 W/m2
03:49 34.2 °F 31.3 °F 30.5 in ENE 0.1 mph 10.1 mph 89% 0 in 0 W/m2
03:54 33.8 °F 30.9 °F 30.5 in North 0.7 mph 4.9 mph 89% 0 in 0 W/m2
03:59 33.8 °F 31.1 °F 30.5 in Calm     90% 0 in 0 W/m2
04:04 33.8 °F 31.5 °F 30.5 in NE 0.1 mph 2.5 mph 91.7% 0 in 0 W/m2
04:09 33.6 °F 31.1 °F 30.5 in NNE 0.2 mph 4.9 mph 90.4% 0 in 0 W/m2
04:14 33.4 °F 30.7 °F 30.5 in Calm   2.5 mph 90% 0 in 0 W/m2
04:19 33.4 °F 30.9 °F 30.5 in North 0.9 mph 4.9 mph 90.4% 0 in 0 W/m2
04:24 33.4 °F 30.7 °F 30.5 in NNW 1.4 mph 7.6 mph 89.8% 0 in 0 W/m2
04:29 33.4 °F 30.6 °F 30.5 in North 0.3 mph 7.6 mph 89.2% 0 in 0 W/m2
04:34 33.3 °F 30.6 °F 30.5 in North 0.1 mph 2.5 mph 90% 0 in 0 W/m2
04:39 33.3 °F 30.7 °F 30.6 in North 0.4 mph 4.9 mph 90.4% 0 in 0 W/m2
04:44 33.3 °F 30.6 °F 30.6 in NW 0.8 mph 4.9 mph 90% 0 in 0 W/m2
04:49 33.3 °F 30.6 °F 30.5 in North 1.9 mph 7.6 mph 90% 0 in 0 W/m2
04:54 33.3 °F 30.6 °F 30.5 in NNE 1.1 mph 7.6 mph 90% 0 in 0 W/m2
04:59 33.1 °F 30.2 °F 30.6 in NNE 4.3 mph 12.5 mph 89.2% 0 in 0 W/m2
05:04 33.1 °F 30.2 °F 30.6 in North 2.5 mph 12.5 mph 89% 0 in 0 W/m2
05:09 33.1 °F 30.4 °F 30.6 in NNW 0.2 mph 4.9 mph 89.7% 0 in 0 W/m2
05:14 33.1 °F 30.4 °F 30.6 in North 1.2 mph 4.9 mph 90% 0 in 0 W/m2
05:19 33.1 °F 30.2 °F 30.6 in North 2.5 mph 10.1 mph 89.2% 0 in 0 W/m2
05:24 33.1 °F 30.2 °F 30.6 in NNW 0.7 mph 4.9 mph 89% 0 in 0 W/m2
05:29 33.3 °F 30.2 °F 30.6 in NNW 1.9 mph 7.6 mph 88.4% 0 in 0 W/m2
05:34 33.4 °F 30.2 °F 30.6 in North 3.9 mph 10.1 mph 88% 0 in 0 W/m2
05:39 33.4 °F 30.2 °F 30.6 in North 2.8 mph 10.1 mph 88% 0 in 0 W/m2
05:44 33.4 °F 30.2 °F 30.6 in NNW 1.2 mph 7.6 mph 87.9% 0 in 0 W/m2
05:49 33.4 °F 30 °F 30.6 in NNW 2.8 mph 10.1 mph 87% 0 in 0 W/m2
05:54 33.6 °F 30.2 °F 30.6 in North 1.1 mph 10.1 mph 87% 0 in 0 W/m2
05:59 33.6 °F 30.2 °F 30.6 in NNW 2.1 mph 7.6 mph 87% 0 in 0 W/m2
06:04 33.6 °F 30.2 °F 30.6 in North 3.5 mph 10.1 mph 87% 0 in 0 W/m2
06:09 33.6 °F 30.2 °F 30.6 in NW 2.4 mph 10.1 mph 87% 0 in 0 W/m2
06:14 33.4 °F 30 °F 30.6 in NNW 2.4 mph 7.6 mph 87% 0 in 0 W/m2
06:19 33.4 °F 30 °F 30.6 in NNW 2.1 mph 7.6 mph 87% 0 in 0 W/m2
06:24 33.4 °F 30 °F 30.6 in North 5.4 mph 12.5 mph 86.9% 0 in 0 W/m2
06:29 33.4 °F 29.7 °F 30.6 in North 3.5 mph 12.5 mph 86% 0 in 0 W/m2
06:34 33.3 °F 29.8 °F 30.6 in NNW 2.9 mph 7.6 mph 87% 0 in 0 W/m2
06:39 33.4 °F 29.7 °F 30.6 in North 2.7 mph 10.1 mph 86.1% 0 in 0 W/m2
06:44 33.4 °F 29.7 °F 30.6 in North 2.9 mph 10.1 mph 86% 0 in 0 W/m2
06:49 33.4 °F 29.7 °F 30.6 in NNW 2.9 mph 10.1 mph 86% 0 in 0 W/m2
06:54 33.6 °F 29.7 °F 30.6 in NNW 3.2 mph 10.1 mph 85.1% 0 in 0 W/m2
06:59 33.6 °F 29.7 °F 30.6 in North 3.1 mph 7.6 mph 85% 0 in 0 W/m2
07:04 33.6 °F 29.7 °F 30.6 in North 3.5 mph 12.5 mph 85.1% 0 in 0 W/m2
07:09 33.6 °F 29.7 °F 30.6 in North 3.7 mph 12.5 mph 85% 0 in 0 W/m2
07:14 33.6 °F 29.7 °F 30.6 in NNW 1.9 mph 10.1 mph 84.9% 0 in 0 W/m2
07:19 33.6 °F 29.5 °F 30.6 in NNE 1.3 mph 4.9 mph 84.7% 0 in 0 W/m2
07:24 33.8 °F 29.5 °F 30.6 in NNW 1.9 mph 7.6 mph 84% 0 in 0 W/m2
07:29 34 °F 29.3 °F 30.6 in North 3.3 mph 7.6 mph 83.2% 0 in 0 W/m2
07:34 34.2 °F 29.5 °F 30.6 in North 5.2 mph 12.5 mph 83% 0 in 0 W/m2
07:39 34.2 °F 29.5 °F 30.6 in North 2.2 mph 10.1 mph 83% 0 in 0 W/m2
07:44 34.2 °F 29.7 °F 30.6 in Calm   4.9 mph 83.6% 0 in 0 W/m2
07:49 34.2 °F 29.7 °F 30.6 in NE 2.1 mph 7.6 mph 84% 0 in 0 W/m2
07:54 33.4 °F 29.3 °F 30.6 in NNE 3.7 mph 12.5 mph 84.6% 0 in 0 W/m2
07:59 33.4 °F 29.1 °F 30.6 in North 4.2 mph 12.5 mph 84% 0 in 0 W/m2
08:04 33.4 °F 29.1 °F 30.6 in North 2.4 mph 7.6 mph 84% 0 in 2 W/m2
08:09 33.4 °F 29.1 °F 30.6 in North 0.7 mph 7.6 mph 84% 0 in 4 W/m2
08:14 33.6 °F 29.3 °F 30.6 in NNW 0.6 mph 4.9 mph 84% 0 in 6 W/m2
08:19 33.6 °F 29.3 °F 30.6 in NNE 0.7 mph 4.9 mph 84% 0 in 9 W/m2
08:24 33.4 °F 29.1 °F 30.7 in Calm   2.5 mph 84% 0 in 12 W/m2
08:29 33.4 °F 29.1 °F 30.7 in Calm   2.5 mph 84% 0 in 16 W/m2
08:34 33.3 °F 29.1 °F 30.7 in North 0.5 mph 4.9 mph 84.6% 0 in 19 W/m2
08:39 33.1 °F 29.1 °F 30.7 in North 2.2 mph 10.1 mph 85% 0 in 21 W/m2
08:44 33.1 °F 29.1 °F 30.7 in North 1.5 mph 4.9 mph 85% 0 in 23 W/m2
08:49 33.1 °F 29.1 °F 30.7 in NNW 0.6 mph 4.9 mph 85% 0 in 28 W/m2
08:54 33.1 °F 29.1 °F 30.7 in Calm   2.5 mph 85% 0 in 32 W/m2
08:59 33.1 °F 29.1 °F 30.7 in Calm   2.5 mph 85% 0 in 35 W/m2
09:04 33.1 °F 29.1 °F 30.7 in Calm     85% 0 in 36 W/m2
09:09 33.1 °F 29.1 °F 30.7 in Calm     85% 0 in 41 W/m2
09:14 33.6 °F 29.7 °F 30.7 in Calm     84.8% 0 in 42 W/m2
09:19 33.6 °F 29.5 °F 30.7 in Calm     84.7% 0 in 43 W/m2
09:24 33.6 °F 29.7 °F 30.7 in NNW 0.1 mph 2.5 mph 84.8% 0 in 47 W/m2
09:29 33.8 °F 29.5 °F 30.7 in NNE 0.2 mph 2.5 mph 84.1% 0 in 48 W/m2
09:34 34.2 °F 29.8 °F 30.7 in North 2.2 mph 7.6 mph 84% 0 in 48 W/m2
09:39 34.2 °F 29.8 °F 30.7 in NNE 2 mph 7.6 mph 84% 0 in 49 W/m2
09:44 34.2 °F 29.8 °F 30.7 in NNE 1.2 mph 7.6 mph 84% 0 in 50 W/m2
09:49 34.2 °F 29.8 °F 30.7 in NNW 0.7 mph 4.9 mph 84% 0 in 53 W/m2
09:54 34.3 °F 29.8 °F 30.7 in North 0.2 mph 7.6 mph 83.6% 0 in 60 W/m2
09:59 34.3 °F 29.7 °F 30.7 in NE 1.1 mph 4.9 mph 83.1% 0 in 65 W/m2
10:04 34.3 °F 29.7 °F 30.7 in East 0.1 mph 4.9 mph 83% 0 in 72 W/m2
10:09 34.5 °F 29.8 °F 30.7 in NNW 1.9 mph 10.1 mph 82.7% 0 in 72 W/m2
10:14 34.9 °F 30.2 °F 30.7 in NE 0.3 mph 7.6 mph 82.9% 0 in 76 W/m2
10:19 34.9 °F 30.2 °F 30.7 in North 1.4 mph 4.9 mph 83% 0 in 80 W/m2
10:24 34.9 °F 30.2 °F 30.7 in NNW 0.2 mph 4.9 mph 83% 0 in 80 W/m2
10:29 34.9 °F 30.2 °F 30.7 in NNE 0.4 mph 4.9 mph 83% 0 in 86 W/m2
10:34 35.2 °F 30.4 °F 30.7 in NNE 3.5 mph 7.6 mph 82.1% 0 in 86 W/m2
10:39 35.2 °F 30.6 °F 30.7 in NE 1.7 mph 7.6 mph 82.8% 0 in 88 W/m2
10:44 35.2 °F 30.4 °F 30.7 in NNW 0.2 mph 7.6 mph 82.3% 0 in 101 W/m2
10:49 35.2 °F 30.2 °F 30.7 in North 0.8 mph 4.9 mph 81.3% 0 in 104 W/m2
10:54 36.5 °F 31.1 °F 30.7 in NNE 0.2 mph 2.5 mph 80.7% 0 in 116 W/m2
10:59 36.7 °F 31.1 °F 30.7 in NE 0.3 mph 4.9 mph 80% 0 in 117 W/m2
11:04 36.7 °F 31.1 °F 30.7 in ENE 0.5 mph 7.6 mph 80% 0 in 112 W/m2
11:09 36.7 °F 31.1 °F 30.7 in North 3.3 mph 7.6 mph 80% 0 in 112 W/m2
11:14 36.9 °F 31.3 °F 30.7 in North 0.4 mph 7.6 mph 79.9% 0 in 115 W/m2
11:19 37 °F 31.1 °F 30.7 in North 0.5 mph 4.9 mph 78.8% 0 in 120 W/m2
11:24 37 °F 31.1 °F 30.7 in North 2.2 mph 7.6 mph 79.1% 0 in 124 W/m2
11:29 37 °F 31.1 °F 30.7 in NNE 1.6 mph 7.6 mph 79% 0 in 128 W/m2
11:34 37 °F 31.1 °F 30.7 in NNE 2.1 mph 7.6 mph 79% 0 in 129 W/m2
11:39 37 °F 30.9 °F 30.7 in NNE 2 mph 4.9 mph 78.3% 0 in 134 W/m2
11:44 37 °F 30.9 °F 30.7 in NNE 1.1 mph 4.9 mph 78.3% 0 in 128 W/m2
11:49 37 °F 30.7 °F 30.7 in ENE 0.1 mph 2.5 mph 78% 0 in 137 W/m2
11:54 37.6 °F 31.1 °F 30.7 in Calm     77% 0 in 139 W/m2
11:59 37.9 °F 31.3 °F 30.7 in Calm     76.4% 0 in 117 W/m2
12:04 37.9 °F 31.1 °F 30.7 in SSE 0.1 mph 2.5 mph 75.8% 0 in 116 W/m2
12:09 38.1 °F 31.3 °F 30.7 in NE 0.4 mph 4.9 mph 76.1% 0 in 102 W/m2
12:14 38.1 °F 31.6 °F 30.7 in North 0.6 mph 7.6 mph 77% 0 in 109 W/m2
12:19 38.1 °F 31.8 °F 30.7 in ENE 0.4 mph 4.9 mph 77.8% 0 in 102 W/m2
12:24 37.9 °F 31.8 °F 30.7 in East 1.2 mph 4.9 mph 78.3% 0 in 106 W/m2
12:29 37.8 °F 31.5 °F 30.7 in North 2 mph 7.6 mph 77.8% 0 in 115 W/m2
12:34 37.6 °F 31.1 °F 30.7 in NE 0.2 mph 7.6 mph 77% 0 in 135 W/m2
12:39 37.4 °F 30.7 °F 30.7 in Calm     76.4% 0 in 132 W/m2
12:44 37.6 °F 30.7 °F 30.7 in Calm     76.2% 0 in 121 W/m2
12:49 37.8 °F 30.7 °F 30.7 in Calm     75.6% 0 in 114 W/m2
12:54 38.5 °F 31.5 °F 30.7 in NNE 1.2 mph 4.9 mph 75.7% 0 in 114 W/m2
12:59 38.7 °F 31.8 °F 30.7 in Calm   2.5 mph 76.4% 0 in 94 W/m2
13:04 38.5 °F 31.8 °F 30.7 in NNE 2.2 mph 7.6 mph 76.9% 0 in 95 W/m2
13:09 38.3 °F 31.6 °F 30.7 in North 2.1 mph 7.6 mph 77% 0 in 94 W/m2
13:14 37.8 °F 31.3 °F 30.7 in North 0.2 mph 4.9 mph 77% 0 in 98 W/m2
13:19 37.4 °F 30.7 °F 30.7 in North 0.6 mph 7.6 mph 76.6% 0 in 115 W/m2
13:24 37.6 °F 30.7 °F 30.7 in ESE 0.1 mph 4.9 mph 76% 0 in 122 W/m2
13:29 37.8 °F 30.6 °F 30.7 in North 0.2 mph 2.5 mph 75.3% 0 in 124 W/m2
13:34 37.9 °F 30.7 °F 30.7 in NNE 1.7 mph 10.1 mph 75% 0 in 117 W/m2
13:39 38.1 °F 30.9 °F 30.7 in NE 2.7 mph 10.1 mph 75% 0 in 131 W/m2
13:44 37.9 °F 30.7 °F 30.7 in NE 0.6 mph 7.6 mph 75% 0 in 136 W/m2
13:49 37.9 °F 30.7 °F 30.7 in NE 0.1 mph 2.5 mph 74.9% 0 in 107 W/m2
13:54 37.9 °F 30.6 °F 30.7 in Calm   2.5 mph 74.4% 0 in 92 W/m2
13:59 37.9 °F 30.6 °F 30.7 in ENE 0.9 mph 7.6 mph 74.3% 0 in 92 W/m2
14:04 37.9 °F 30.4 °F 30.7 in North 1.7 mph 7.6 mph 74% 0 in 89 W/m2
14:09 37.9 °F 30.4 °F 30.7 in NNE 1.4 mph 7.6 mph 74% 0 in 102 W/m2
14:14 37.9 °F 30.4 °F 30.7 in ENE 0.2 mph 4.9 mph 74% 0 in 101 W/m2
14:19 37.8 °F 30 °F 30.7 in North 3 mph 10.1 mph 73.6% 0 in 93 W/m2
14:24 37.8 °F 30 °F 30.7 in North 4.1 mph 10.1 mph 74% 0 in 185 W/m2
14:29 37.6 °F 30 °F 30.7 in North 4.8 mph 10.1 mph 74% 0 in 236 W/m2
14:34 37.4 °F 29.8 °F 30.7 in North 3.9 mph 12.5 mph 74% 0 in 232 W/m2
14:39 37.4 °F 29.8 °F 30.7 in NNE 2.2 mph 12.5 mph 74% 0 in 227 W/m2
14:44 37.4 °F 29.8 °F 30.7 in North 0.9 mph 7.6 mph 74% 0 in 139 W/m2
14:49 37.4 °F 29.8 °F 30.7 in NNE 2.9 mph 10.1 mph 74% 0 in 246 W/m2
14:54 37.8 °F 30 °F 30.7 in North 0.8 mph 7.6 mph 73.9% 0 in 214 W/m2
14:59 37.9 °F 30.4 °F 30.7 in NNW 1.7 mph 7.6 mph 73.9% 0 in 160 W/m2
15:04 37.9 °F 30.4 °F 30.7 in NNE 1.6 mph 7.6 mph 74% 0 in 171 W/m2
15:09 37.9 °F 30.2 °F 30.7 in NNW 1.9 mph 7.6 mph 73.8% 0 in 211 W/m2
15:14 37.8 °F 30.2 °F 30.7 in North 1.6 mph 7.6 mph 73.8% 0 in 221 W/m2
15:19 37.9 °F 30.2 °F 30.7 in North 1.3 mph 4.9 mph 73.4% 0 in 215 W/m2
15:24 37.9 °F 30.4 °F 30.7 in North 1.6 mph 4.9 mph 73.8% 0 in 213 W/m2
15:29 37.9 °F 30.4 °F 30.7 in North 4 mph 10.1 mph 73.8% 0 in 208 W/m2
15:34 37.8 °F 30 °F 30.7 in North 4.5 mph 10.1 mph 74% 0 in 195 W/m2
15:39 37.2 °F 29.7 °F 30.7 in NNW 2.5 mph 10.1 mph 74% 0 in 187 W/m2
15:44 37.2 °F 29.8 °F 30.7 in North 5.3 mph 12.5 mph 74.2% 0 in 177 W/m2
15:49 37.2 °F 29.8 °F 30.7 in North 5.9 mph 12.5 mph 74.9% 0 in 165 W/m2
15:54 36.9 °F 29.7 °F 30.7 in North 4.2 mph 10.1 mph 75% 0 in 165 W/m2
15:59 36.3 °F 29.1 °F 30.7 in North 5 mph 10.1 mph 75% 0 in 145 W/m2
16:04 36.3 °F 29.1 °F 30.7 in North 6 mph 12.5 mph 75.2% 0 in 136 W/m2
16:09 36.1 °F 29.3 °F 30.7 in NNE 6 mph 12.5 mph 76% 0 in 55 W/m2
16:14 36 °F 29.1 °F 30.7 in NNE 5.2 mph 15 mph 76% 0 in 52 W/m2
16:19 35.4 °F 28.6 °F 30.7 in NNW 4 mph 10.1 mph 76.1% 0 in 49 W/m2
16:24 35.2 °F 28.8 °F 30.7 in North 4.5 mph 10.1 mph 76.8% 0 in 45 W/m2
16:29 35.2 °F 28.8 °F 30.7 in NNW 1.4 mph 7.6 mph 77% 0 in 42 W/m2
16:34 35.2 °F 28.8 °F 30.7 in North 2.1 mph 7.6 mph 77% 0 in 38 W/m2
16:39 35.1 °F 28.6 °F 30.7 in NNE 2.5 mph 7.6 mph 77% 0 in 35 W/m2
16:44 35.1 °F 28.6 °F 30.7 in North 0.6 mph 4.9 mph 77% 0 in 32 W/m2
16:49 35.1 °F 28.6 °F 30.7 in NE 0.2 mph 4.9 mph 77.1% 0 in 28 W/m2
16:54 34.9 °F 28.8 °F 30.7 in Calm     78.1% 0 in 25 W/m2
16:59 34.3 °F 28.6 °F 30.7 in Calm     79% 0 in 21 W/m2
17:04 34.3 °F 28.6 °F 30.7 in NW 0.1 mph 2.5 mph 79.1% 0 in 17 W/m2
17:09 34.3 °F 28.6 °F 30.7 in NNW 0.7 mph 4.9 mph 79% 0 in 11 W/m2
17:14 34.3 °F 28.6 °F 30.7 in NW 0.2 mph 2.5 mph 79.1% 0 in 9 W/m2
17:19 34 °F 28.4 °F 30.7 in NW 0.2 mph 4.9 mph 80% 0 in 7 W/m2
17:24 34 °F 28.4 °F 30.7 in North 0.6 mph 4.9 mph 80% 0 in 4 W/m2
17:29 34 °F 28.4 °F 30.7 in North 0.1 mph 4.9 mph 80% 0 in 2 W/m2
17:34 33.8 °F 28.6 °F 30.7 in Calm     81% 0 in 0 W/m2
17:39 32.9 °F 28 °F 30.7 in Calm     82% 0 in 0 W/m2
17:44 32.9 °F 28 °F 30.7 in North 0.1 mph 2.5 mph 82% 0 in 0 W/m2
17:49 32.9 °F 28 °F 30.7 in Calm     82% 0 in 0 W/m2
17:54 32.9 °F 28 °F 30.8 in Calm     82% 0 in 0 W/m2
17:59 32.5 °F 27.9 °F 30.8 in Calm     82.6% 0 in 0 W/m2
18:04 32.5 °F 28.4 °F 30.8 in Calm     84.6% 0 in 0 W/m2
18:09 32.4 °F 28.4 °F 30.8 in Calm     85.1% 0 in 0 W/m2
18:14 32.2 °F 28.2 °F 30.8 in Calm     84.9% 0 in 0 W/m2
18:19 32 °F 27.7 °F 30.8 in Calm     84.2% 0 in 0 W/m2
18:24 32 °F 28 °F 30.8 in Calm     85% 0 in 0 W/m2
18:29 32 °F 28 °F 30.8 in Calm     85% 0 in 0 W/m2
18:34 32 °F 28 °F 30.8 in Calm     85% 0 in 0 W/m2
18:39 32 °F 28 °F 30.8 in Calm     85.4% 0 in 0 W/m2
18:44 32 °F 27.9 °F 30.8 in Calm     84.8% 0 in 0 W/m2
18:49 32 °F 27.7 °F 30.8 in Calm     84% 0 in 0 W/m2
18:54 32 °F 28 °F 30.8 in Calm     84.9% 0 in 0 W/m2
18:59 32 °F 28 °F 30.8 in Calm     85% 0 in 0 W/m2
19:04 32 °F 27.7 °F 30.8 in Calm     84.2% 0 in 0 W/m2
19:09 32 °F 27.5 °F 30.8 in Calm     83% 0 in 0 W/m2
19:14 32 °F 27.7 °F 30.8 in Calm     83.7% 0 in 0 W/m2
19:19 32 °F 28 °F 30.8 in Calm     84.9% 0 in 0 W/m2
19:24 32 °F 28.4 °F 30.8 in Calm     86.6% 0 in 0 W/m2
19:29 32 °F 28.2 °F 30.8 in Calm     86% 0 in 0 W/m2
19:34 31.8 °F 28 °F 30.8 in Calm     86% 0 in 0 W/m2
19:39 31.5 °F 27.7 °F 30.8 in Calm     86% 0 in 0 W/m2
19:44 31.5 °F 27.7 °F 30.8 in Calm     86% 0 in 0 W/m2
19:49 31.5 °F 27.5 °F 30.8 in Calm     85.2% 0 in 0 W/m2
19:54 31.5 °F 27.3 °F 30.8 in Calm     84.4% 0 in 0 W/m2
19:59 31.6 °F 27.7 °F 30.8 in Calm     85.8% 0 in 0 W/m2
20:04 31.6 °F 27.9 °F 30.8 in Calm     86% 0 in 0 W/m2
20:09 31.6 °F 28 °F 30.8 in Calm     86.6% 0 in 0 W/m2
20:14 31.5 °F 28 °F 30.8 in Calm     87% 0 in 0 W/m2
20:19 31.3 °F 27.9 °F 30.8 in Calm     87% 0 in 0 W/m2
20:24 31.5 °F 27.7 °F 30.8 in Calm     85.9% 0 in 0 W/m2
20:29 31.5 °F 27.5 °F 30.8 in Calm     85% 0 in 0 W/m2
20:34 31.6 °F 27.5 °F 30.8 in Calm     84.6% 0 in 0 W/m2
20:39 32 °F 27.7 °F 30.8 in Calm     84.3% 0 in 0 W/m2
20:44 32 °F 28 °F 30.8 in Calm     85% 0 in 0 W/m2
20:49 32 °F 28 °F 30.8 in Calm     85.4% 0 in 0 W/m2
20:54 32 °F 28.2 °F 30.8 in Calm     86% 0 in 0 W/m2
20:59 31.6 °F 28 °F 30.8 in Calm     86.2% 0 in 0 W/m2
21:04 31.5 °F 28 °F 30.8 in Calm     87.1% 0 in 0 W/m2
21:09 31.6 °F 27.9 °F 30.8 in Calm     86.2% 0 in 0 W/m2
21:14 31.6 °F 27.9 °F 30.8 in Calm     85.4% 0 in 0 W/m2
21:19 32.2 °F 28 °F 30.8 in Calm     84.7% 0 in 0 W/m2
21:24 32.2 °F 28.4 °F 30.8 in Calm     85.4% 0 in 0 W/m2
21:29 32.2 °F 28.6 °F 30.8 in Calm     86.8% 0 in 0 W/m2
21:34 32 °F 28.6 °F 30.8 in Calm     87% 0 in 0 W/m2
21:39 31.3 °F 28.2 °F 30.8 in Calm     87.8% 0 in 0 W/m2
21:44 30.9 °F 27.9 °F 30.8 in Calm     88.3% 0 in 0 W/m2
21:49 30.9 °F 27.9 °F 30.8 in Calm     87.9% 0 in 0 W/m2
21:54 31.1 °F 27.1 °F 30.8 in Calm     85.7% 0 in 0 W/m2
21:59 31.8 °F 27.9 °F 30.8 in Calm     85% 0 in 0 W/m2
22:04 32 °F 27.7 °F 30.8 in Calm     83.8% 0 in 0 W/m2
22:09 32 °F 27.7 °F 30.8 in Calm     84% 0 in 0 W/m2
22:14 32 °F 27.7 °F 30.8 in Calm     84.2% 0 in 0 W/m2
22:19 32 °F 27.7 °F 30.8 in Calm     84.2% 0 in 0 W/m2
22:24 32 °F 27.9 °F 30.8 in Calm     84.8% 0 in 0 W/m2
22:29 32 °F 27.7 °F 30.8 in Calm     84% 0 in 0 W/m2
22:34 32 °F 27.7 °F 30.9 in Calm     84% 0 in 0 W/m2
22:39 31.8 °F 27.5 °F 30.9 in Calm     84% 0 in 0 W/m2
22:44 31.8 °F 27.5 °F 30.9 in Calm     84% 0 in 0 W/m2
22:49 31.8 °F 27.5 °F 30.9 in Calm     84% 0 in 0 W/m2
22:54 31.6 °F 27.5 °F 30.9 in Calm     84.4% 0 in 0 W/m2
22:59 31.5 °F 27.5 °F 30.9 in Calm     85% 0 in 0 W/m2
23:04 31.3 °F 27.1 °F 30.9 in Calm     84.3% 0 in 0 W/m2
23:09 31.3 °F 27.1 °F 30.9 in Calm     84.6% 0 in 0 W/m2
23:14 31.3 °F 27.3 °F 30.9 in Calm     85% 0 in 0 W/m2
23:19 31.3 °F 27.3 °F 30.9 in Calm     85% 0 in 0 W/m2
23:24 31.3 °F 27.3 °F 30.9 in Calm     85% 0 in 0 W/m2
23:29 31.3 °F 27.3 °F 30.9 in Calm     85% 0 in 0 W/m2
23:34 31.3 °F 27 °F 30.9 in Calm     84% 0 in 0 W/m2
23:39 31.8 °F 27.3 °F 30.9 in Calm     83.2% 0 in 0 W/m2
23:44 32 °F 27.5 °F 30.9 in Calm     83.3% 0 in 0 W/m2
23:49 32 °F 27.5 °F 30.9 in Calm     83.2% 0 in 0 W/m2
23:54 32 °F 27.5 °F 30.9 in Calm     83.4% 0 in 0 W/m2
23:59 31.6 °F 27.3 °F 30.9 in Calm     84% 0 in 0 W/m2
Juneau County Weather
Compliments of Weather Underground - 2 mb